<?xml version="1.0" encoding="UTF-8" standalone="no" ?>
<gpx xmlns="http://www.topografix.com/GPX/1/1" xmlns:xsi="http://www.w3.org/2001/XMLSchema-instance" xsi:schemaLocation="http://www.topografix.com/GPX/1/1 http://www.topografix.com/GPX/1/1/gpx.xsd" version="1.1" creator="VisuGPX - https://www.visugpx.com">
  <metadata>
    <name>Rando à Tournemire</name>
  </metadata>
  <trk>
    <name><![CDATA[Rando à Tournemire_1]]></name>
    <trkseg>
      <trkpt lat="45.05338" lon="2.48559">
        <ele>806.2</ele>
        <time>2022-02-19T11:33:51Z</time>
      </trkpt>
      <trkpt lat="45.05344" lon="2.48565">
        <ele>806.2</ele>
        <time>2022-02-19T11:34:05Z</time>
      </trkpt>
      <trkpt lat="45.05345" lon="2.48564">
        <ele>806.2</ele>
        <time>2022-02-19T11:34:20Z</time>
      </trkpt>
      <trkpt lat="45.05342" lon="2.48558">
        <ele>806.2</ele>
        <time>2022-02-19T11:34:37Z</time>
      </trkpt>
      <trkpt lat="45.05341" lon="2.4855">
        <ele>806.2</ele>
        <time>2022-02-19T11:34:45Z</time>
      </trkpt>
      <trkpt lat="45.05342" lon="2.48548">
        <ele>805.8</ele>
        <time>2022-02-19T11:34:50Z</time>
      </trkpt>
      <trkpt lat="45.05341" lon="2.48542">
        <ele>806.2</ele>
        <time>2022-02-19T11:35:01Z</time>
      </trkpt>
      <trkpt lat="45.05341" lon="2.48534">
        <ele>806.6</ele>
        <time>2022-02-19T11:35:06Z</time>
      </trkpt>
      <trkpt lat="45.05341" lon="2.48529">
        <ele>807.4</ele>
        <time>2022-02-19T11:35:09Z</time>
      </trkpt>
      <trkpt lat="45.05342" lon="2.48525">
        <ele>807.8</ele>
        <time>2022-02-19T11:35:12Z</time>
      </trkpt>
      <trkpt lat="45.05344" lon="2.48523">
        <ele>807.8</ele>
        <time>2022-02-19T11:35:16Z</time>
      </trkpt>
      <trkpt lat="45.05345" lon="2.48522">
        <ele>807.8</ele>
        <time>2022-02-19T11:35:23Z</time>
      </trkpt>
      <trkpt lat="45.05341" lon="2.48527">
        <ele>807.4</ele>
        <time>2022-02-19T11:35:32Z</time>
      </trkpt>
      <trkpt lat="45.05339" lon="2.48524">
        <ele>807.4</ele>
        <time>2022-02-19T11:35:42Z</time>
      </trkpt>
      <trkpt lat="45.05337" lon="2.48516">
        <ele>807.8</ele>
        <time>2022-02-19T11:35:51Z</time>
      </trkpt>
      <trkpt lat="45.05336" lon="2.48504">
        <ele>807</ele>
        <time>2022-02-19T11:36:02Z</time>
      </trkpt>
      <trkpt lat="45.05336" lon="2.48504">
        <ele>807</ele>
        <time>2022-02-19T11:36:03Z</time>
      </trkpt>
      <trkpt lat="45.05335" lon="2.48496">
        <ele>806.4</ele>
        <time>2022-02-19T11:36:08Z</time>
      </trkpt>
      <trkpt lat="45.05335" lon="2.48491">
        <ele>806.2</ele>
        <time>2022-02-19T11:36:11Z</time>
      </trkpt>
      <trkpt lat="45.05335" lon="2.48489">
        <ele>806.2</ele>
        <time>2022-02-19T11:36:12Z</time>
      </trkpt>
      <trkpt lat="45.05335" lon="2.48484">
        <ele>806.2</ele>
        <time>2022-02-19T11:36:15Z</time>
      </trkpt>
      <trkpt lat="45.05335" lon="2.48464">
        <ele>806</ele>
        <time>2022-02-19T11:36:26Z</time>
      </trkpt>
      <trkpt lat="45.05336" lon="2.48447">
        <ele>805.2</ele>
        <time>2022-02-19T11:36:36Z</time>
      </trkpt>
      <trkpt lat="45.05336" lon="2.48439">
        <ele>805</ele>
        <time>2022-02-19T11:36:41Z</time>
      </trkpt>
      <trkpt lat="45.05342" lon="2.48425">
        <ele>804.2</ele>
        <time>2022-02-19T11:36:53Z</time>
      </trkpt>
      <trkpt lat="45.05343" lon="2.48423">
        <ele>804.2</ele>
        <time>2022-02-19T11:36:54Z</time>
      </trkpt>
      <trkpt lat="45.05349" lon="2.48414">
        <ele>803.2</ele>
        <time>2022-02-19T11:37:03Z</time>
      </trkpt>
      <trkpt lat="45.05354" lon="2.48408">
        <ele>803</ele>
        <time>2022-02-19T11:37:09Z</time>
      </trkpt>
      <trkpt lat="45.05365" lon="2.48394">
        <ele>802.4</ele>
        <time>2022-02-19T11:37:24Z</time>
      </trkpt>
      <trkpt lat="45.05368" lon="2.48388">
        <ele>802.2</ele>
        <time>2022-02-19T11:37:31Z</time>
      </trkpt>
      <trkpt lat="45.05371" lon="2.4838">
        <ele>802</ele>
        <time>2022-02-19T11:37:38Z</time>
      </trkpt>
      <trkpt lat="45.05374" lon="2.48372">
        <ele>801.8</ele>
        <time>2022-02-19T11:37:45Z</time>
      </trkpt>
      <trkpt lat="45.05372" lon="2.48366">
        <ele>801.6</ele>
        <time>2022-02-19T11:37:48Z</time>
      </trkpt>
      <trkpt lat="45.05374" lon="2.48364">
        <ele>801.2</ele>
        <time>2022-02-19T11:37:57Z</time>
      </trkpt>
      <trkpt lat="45.05375" lon="2.48363">
        <ele>801.2</ele>
        <time>2022-02-19T11:38:00Z</time>
      </trkpt>
      <trkpt lat="45.05377" lon="2.48365">
        <ele>801.4</ele>
        <time>2022-02-19T11:38:18Z</time>
      </trkpt>
      <trkpt lat="45.05375" lon="2.48366">
        <ele>801</ele>
        <time>2022-02-19T11:38:33Z</time>
      </trkpt>
      <trkpt lat="45.05377" lon="2.48364">
        <ele>801.2</ele>
        <time>2022-02-19T11:38:42Z</time>
      </trkpt>
      <trkpt lat="45.05379" lon="2.48359">
        <ele>801.6</ele>
        <time>2022-02-19T11:38:52Z</time>
      </trkpt>
      <trkpt lat="45.05381" lon="2.48355">
        <ele>802</ele>
        <time>2022-02-19T11:38:57Z</time>
      </trkpt>
      <trkpt lat="45.05382" lon="2.48354">
        <ele>802.2</ele>
        <time>2022-02-19T11:39:00Z</time>
      </trkpt>
      <trkpt lat="45.05383" lon="2.48353">
        <ele>802.6</ele>
        <time>2022-02-19T11:39:04Z</time>
      </trkpt>
      <trkpt lat="45.05389" lon="2.4834">
        <ele>803</ele>
        <time>2022-02-19T11:39:16Z</time>
      </trkpt>
      <trkpt lat="45.05389" lon="2.48339">
        <ele>803.2</ele>
        <time>2022-02-19T11:39:17Z</time>
      </trkpt>
      <trkpt lat="45.0539" lon="2.48338">
        <ele>803.2</ele>
        <time>2022-02-19T11:39:20Z</time>
      </trkpt>
      <trkpt lat="45.05391" lon="2.48338">
        <ele>803</ele>
        <time>2022-02-19T11:39:28Z</time>
      </trkpt>
      <trkpt lat="45.05391" lon="2.48343">
        <ele>803.4</ele>
        <time>2022-02-19T11:39:47Z</time>
      </trkpt>
      <trkpt lat="45.05396" lon="2.4835">
        <ele>803.8</ele>
        <time>2022-02-19T11:40:06Z</time>
      </trkpt>
      <trkpt lat="45.05397" lon="2.48351">
        <ele>804.2</ele>
        <time>2022-02-19T11:40:08Z</time>
      </trkpt>
      <trkpt lat="45.05398" lon="2.48349">
        <ele>804.2</ele>
        <time>2022-02-19T11:40:24Z</time>
      </trkpt>
      <trkpt lat="45.05397" lon="2.48348">
        <ele>803</ele>
        <time>2022-02-19T11:40:27Z</time>
      </trkpt>
      <trkpt lat="45.05397" lon="2.48346">
        <ele>802.6</ele>
        <time>2022-02-19T11:40:42Z</time>
      </trkpt>
      <trkpt lat="45.05394" lon="2.48349">
        <ele>803</ele>
        <time>2022-02-19T11:40:59Z</time>
      </trkpt>
      <trkpt lat="45.05396" lon="2.48344">
        <ele>803</ele>
        <time>2022-02-19T11:41:15Z</time>
      </trkpt>
      <trkpt lat="45.05398" lon="2.48338">
        <ele>803.6</ele>
        <time>2022-02-19T11:41:19Z</time>
      </trkpt>
      <trkpt lat="45.05399" lon="2.48335">
        <ele>804.2</ele>
        <time>2022-02-19T11:41:21Z</time>
      </trkpt>
      <trkpt lat="45.05401" lon="2.48327">
        <ele>804.6</ele>
        <time>2022-02-19T11:41:26Z</time>
      </trkpt>
      <trkpt lat="45.05404" lon="2.48322">
        <ele>805.2</ele>
        <time>2022-02-19T11:41:30Z</time>
      </trkpt>
      <trkpt lat="45.05408" lon="2.4831">
        <ele>806.4</ele>
        <time>2022-02-19T11:41:38Z</time>
      </trkpt>
      <trkpt lat="45.0541" lon="2.48301">
        <ele>806.8</ele>
        <time>2022-02-19T11:41:43Z</time>
      </trkpt>
      <trkpt lat="45.05412" lon="2.48298">
        <ele>807.4</ele>
        <time>2022-02-19T11:41:45Z</time>
      </trkpt>
      <trkpt lat="45.05419" lon="2.48288">
        <ele>808.2</ele>
        <time>2022-02-19T11:41:58Z</time>
      </trkpt>
      <trkpt lat="45.05418" lon="2.48287">
        <ele>808.6</ele>
        <time>2022-02-19T11:42:00Z</time>
      </trkpt>
      <trkpt lat="45.05419" lon="2.48281">
        <ele>808</ele>
        <time>2022-02-19T11:42:08Z</time>
      </trkpt>
      <trkpt lat="45.05421" lon="2.48277">
        <ele>808.8</ele>
        <time>2022-02-19T11:42:14Z</time>
      </trkpt>
      <trkpt lat="45.05424" lon="2.48273">
        <ele>809.6</ele>
        <time>2022-02-19T11:42:19Z</time>
      </trkpt>
      <trkpt lat="45.05424" lon="2.48272">
        <ele>810</ele>
        <time>2022-02-19T11:42:20Z</time>
      </trkpt>
      <trkpt lat="45.05425" lon="2.48269">
        <ele>810.2</ele>
        <time>2022-02-19T11:42:22Z</time>
      </trkpt>
      <trkpt lat="45.05429" lon="2.48256">
        <ele>811</ele>
        <time>2022-02-19T11:42:34Z</time>
      </trkpt>
      <trkpt lat="45.0543" lon="2.48255">
        <ele>811.6</ele>
        <time>2022-02-19T11:42:36Z</time>
      </trkpt>
      <trkpt lat="45.0543" lon="2.48254">
        <ele>811.6</ele>
        <time>2022-02-19T11:42:37Z</time>
      </trkpt>
      <trkpt lat="45.05431" lon="2.48254">
        <ele>811.6</ele>
        <time>2022-02-19T11:42:38Z</time>
      </trkpt>
      <trkpt lat="45.0543" lon="2.48253">
        <ele>811.8</ele>
        <time>2022-02-19T11:42:39Z</time>
      </trkpt>
      <trkpt lat="45.0543" lon="2.48247">
        <ele>812</ele>
        <time>2022-02-19T11:42:43Z</time>
      </trkpt>
      <trkpt lat="45.05431" lon="2.48243">
        <ele>812.2</ele>
        <time>2022-02-19T11:42:45Z</time>
      </trkpt>
      <trkpt lat="45.05431" lon="2.48242">
        <ele>812.2</ele>
        <time>2022-02-19T11:42:46Z</time>
      </trkpt>
      <trkpt lat="45.05434" lon="2.48224">
        <ele>813.2</ele>
        <time>2022-02-19T11:42:57Z</time>
      </trkpt>
      <trkpt lat="45.05434" lon="2.48214">
        <ele>813.4</ele>
        <time>2022-02-19T11:43:02Z</time>
      </trkpt>
      <trkpt lat="45.05435" lon="2.48216">
        <ele>813.2</ele>
        <time>2022-02-19T11:43:05Z</time>
      </trkpt>
      <trkpt lat="45.05435" lon="2.48213">
        <ele>813.2</ele>
        <time>2022-02-19T11:43:08Z</time>
      </trkpt>
      <trkpt lat="45.05436" lon="2.48211">
        <ele>813.2</ele>
        <time>2022-02-19T11:43:09Z</time>
      </trkpt>
      <trkpt lat="45.05436" lon="2.48208">
        <ele>813.4</ele>
        <time>2022-02-19T11:43:11Z</time>
      </trkpt>
      <trkpt lat="45.05434" lon="2.48199">
        <ele>813.4</ele>
        <time>2022-02-19T11:43:21Z</time>
      </trkpt>
      <trkpt lat="45.05431" lon="2.48199">
        <ele>813</ele>
        <time>2022-02-19T11:43:27Z</time>
      </trkpt>
      <trkpt lat="45.05432" lon="2.48199">
        <ele>812.8</ele>
        <time>2022-02-19T11:43:29Z</time>
      </trkpt>
      <trkpt lat="45.05433" lon="2.482">
        <ele>812.8</ele>
        <time>2022-02-19T11:43:44Z</time>
      </trkpt>
      <trkpt lat="45.05439" lon="2.48194">
        <ele>813</ele>
        <time>2022-02-19T11:43:56Z</time>
      </trkpt>
      <trkpt lat="45.05442" lon="2.48187">
        <ele>813</ele>
        <time>2022-02-19T11:44:02Z</time>
      </trkpt>
      <trkpt lat="45.05446" lon="2.48184">
        <ele>812.8</ele>
        <time>2022-02-19T11:44:08Z</time>
      </trkpt>
      <trkpt lat="45.05447" lon="2.48184">
        <ele>812.8</ele>
        <time>2022-02-19T11:44:09Z</time>
      </trkpt>
      <trkpt lat="45.05457" lon="2.4818">
        <ele>813.6</ele>
        <time>2022-02-19T11:44:17Z</time>
      </trkpt>
      <trkpt lat="45.0546" lon="2.48179">
        <ele>814.2</ele>
        <time>2022-02-19T11:44:20Z</time>
      </trkpt>
      <trkpt lat="45.0546" lon="2.48181">
        <ele>814.6</ele>
        <time>2022-02-19T11:44:22Z</time>
      </trkpt>
      <trkpt lat="45.05468" lon="2.48185">
        <ele>815</ele>
        <time>2022-02-19T11:44:34Z</time>
      </trkpt>
      <trkpt lat="45.05469" lon="2.48186">
        <ele>815.4</ele>
        <time>2022-02-19T11:44:35Z</time>
      </trkpt>
      <trkpt lat="45.05471" lon="2.48188">
        <ele>816.2</ele>
        <time>2022-02-19T11:44:39Z</time>
      </trkpt>
      <trkpt lat="45.05472" lon="2.48188">
        <ele>816.4</ele>
        <time>2022-02-19T11:44:45Z</time>
      </trkpt>
      <trkpt lat="45.05472" lon="2.48188">
        <ele>816.4</ele>
        <time>2022-02-19T11:44:55Z</time>
      </trkpt>
      <trkpt lat="45.05473" lon="2.48187">
        <ele>816.4</ele>
        <time>2022-02-19T11:45:02Z</time>
      </trkpt>
      <trkpt lat="45.05473" lon="2.48187">
        <ele>816.2</ele>
        <time>2022-02-19T11:45:19Z</time>
      </trkpt>
      <trkpt lat="45.0548" lon="2.48192">
        <ele>815.8</ele>
        <time>2022-02-19T11:45:29Z</time>
      </trkpt>
      <trkpt lat="45.05482" lon="2.48193">
        <ele>815.6</ele>
        <time>2022-02-19T11:45:31Z</time>
      </trkpt>
      <trkpt lat="45.05484" lon="2.48194">
        <ele>815.6</ele>
        <time>2022-02-19T11:45:33Z</time>
      </trkpt>
      <trkpt lat="45.05487" lon="2.48194">
        <ele>815.4</ele>
        <time>2022-02-19T11:45:36Z</time>
      </trkpt>
      <trkpt lat="45.05493" lon="2.48195">
        <ele>815.4</ele>
        <time>2022-02-19T11:45:41Z</time>
      </trkpt>
      <trkpt lat="45.05502" lon="2.48193">
        <ele>816</ele>
        <time>2022-02-19T11:45:52Z</time>
      </trkpt>
      <trkpt lat="45.05503" lon="2.48194">
        <ele>816</ele>
        <time>2022-02-19T11:45:55Z</time>
      </trkpt>
      <trkpt lat="45.05503" lon="2.48195">
        <ele>815.8</ele>
        <time>2022-02-19T11:46:02Z</time>
      </trkpt>
      <trkpt lat="45.05502" lon="2.48193">
        <ele>816</ele>
        <time>2022-02-19T11:46:14Z</time>
      </trkpt>
      <trkpt lat="45.05501" lon="2.48193">
        <ele>816.6</ele>
        <time>2022-02-19T11:46:19Z</time>
      </trkpt>
      <trkpt lat="45.055" lon="2.48191">
        <ele>816.4</ele>
        <time>2022-02-19T11:46:23Z</time>
      </trkpt>
      <trkpt lat="45.05497" lon="2.48177">
        <ele>816.6</ele>
        <time>2022-02-19T11:46:35Z</time>
      </trkpt>
      <trkpt lat="45.05491" lon="2.48166">
        <ele>816.6</ele>
        <time>2022-02-19T11:46:47Z</time>
      </trkpt>
      <trkpt lat="45.05489" lon="2.48147">
        <ele>815.6</ele>
        <time>2022-02-19T11:47:03Z</time>
      </trkpt>
      <trkpt lat="45.05489" lon="2.48143">
        <ele>815.6</ele>
        <time>2022-02-19T11:47:06Z</time>
      </trkpt>
      <trkpt lat="45.0549" lon="2.48129">
        <ele>814.4</ele>
        <time>2022-02-19T11:47:15Z</time>
      </trkpt>
      <trkpt lat="45.05491" lon="2.48122">
        <ele>814</ele>
        <time>2022-02-19T11:47:19Z</time>
      </trkpt>
      <trkpt lat="45.05495" lon="2.48111">
        <ele>814.2</ele>
        <time>2022-02-19T11:47:29Z</time>
      </trkpt>
      <trkpt lat="45.05504" lon="2.481">
        <ele>815.4</ele>
        <time>2022-02-19T11:47:43Z</time>
      </trkpt>
      <trkpt lat="45.05504" lon="2.48099">
        <ele>815.8</ele>
        <time>2022-02-19T11:47:44Z</time>
      </trkpt>
      <trkpt lat="45.05515" lon="2.48092">
        <ele>816.4</ele>
        <time>2022-02-19T11:47:55Z</time>
      </trkpt>
      <trkpt lat="45.05516" lon="2.48092">
        <ele>816.6</ele>
        <time>2022-02-19T11:47:56Z</time>
      </trkpt>
      <trkpt lat="45.05519" lon="2.48088">
        <ele>817.2</ele>
        <time>2022-02-19T11:48:05Z</time>
      </trkpt>
      <trkpt lat="45.0552" lon="2.48087">
        <ele>817.4</ele>
        <time>2022-02-19T11:48:07Z</time>
      </trkpt>
      <trkpt lat="45.05521" lon="2.48086">
        <ele>817.4</ele>
        <time>2022-02-19T11:48:08Z</time>
      </trkpt>
      <trkpt lat="45.05525" lon="2.48077">
        <ele>816.6</ele>
        <time>2022-02-19T11:48:16Z</time>
      </trkpt>
      <trkpt lat="45.05525" lon="2.48076">
        <ele>816.6</ele>
        <time>2022-02-19T11:48:17Z</time>
      </trkpt>
      <trkpt lat="45.05526" lon="2.48072">
        <ele>816.6</ele>
        <time>2022-02-19T11:48:20Z</time>
      </trkpt>
      <trkpt lat="45.05528" lon="2.48054">
        <ele>816.4</ele>
        <time>2022-02-19T11:48:35Z</time>
      </trkpt>
      <trkpt lat="45.05531" lon="2.48053">
        <ele>816.6</ele>
        <time>2022-02-19T11:48:39Z</time>
      </trkpt>
      <trkpt lat="45.05537" lon="2.4805">
        <ele>817.4</ele>
        <time>2022-02-19T11:48:47Z</time>
      </trkpt>
      <trkpt lat="45.05537" lon="2.48049">
        <ele>817.6</ele>
        <time>2022-02-19T11:48:48Z</time>
      </trkpt>
      <trkpt lat="45.05541" lon="2.48044">
        <ele>818.6</ele>
        <time>2022-02-19T11:48:56Z</time>
      </trkpt>
      <trkpt lat="45.05544" lon="2.48037">
        <ele>819</ele>
        <time>2022-02-19T11:49:02Z</time>
      </trkpt>
      <trkpt lat="45.05551" lon="2.48024">
        <ele>819.8</ele>
        <time>2022-02-19T11:49:16Z</time>
      </trkpt>
      <trkpt lat="45.05551" lon="2.48023">
        <ele>819.8</ele>
        <time>2022-02-19T11:49:17Z</time>
      </trkpt>
      <trkpt lat="45.05555" lon="2.48011">
        <ele>820.8</ele>
        <time>2022-02-19T11:49:25Z</time>
      </trkpt>
      <trkpt lat="45.05557" lon="2.48004">
        <ele>821.4</ele>
        <time>2022-02-19T11:49:30Z</time>
      </trkpt>
      <trkpt lat="45.05559" lon="2.48">
        <ele>821.4</ele>
        <time>2022-02-19T11:49:35Z</time>
      </trkpt>
      <trkpt lat="45.05558" lon="2.47998">
        <ele>821.6</ele>
        <time>2022-02-19T11:49:42Z</time>
      </trkpt>
      <trkpt lat="45.05554" lon="2.48001">
        <ele>822</ele>
        <time>2022-02-19T11:49:53Z</time>
      </trkpt>
      <trkpt lat="45.05554" lon="2.48001">
        <ele>822.2</ele>
        <time>2022-02-19T11:49:54Z</time>
      </trkpt>
      <trkpt lat="45.05553" lon="2.48001">
        <ele>821.2</ele>
        <time>2022-02-19T11:50:09Z</time>
      </trkpt>
      <trkpt lat="45.05558" lon="2.47996">
        <ele>822.2</ele>
        <time>2022-02-19T11:50:23Z</time>
      </trkpt>
      <trkpt lat="45.05557" lon="2.48">
        <ele>822.2</ele>
        <time>2022-02-19T11:50:31Z</time>
      </trkpt>
      <trkpt lat="45.05556" lon="2.48002">
        <ele>823</ele>
        <time>2022-02-19T11:50:36Z</time>
      </trkpt>
      <trkpt lat="45.05558" lon="2.48005">
        <ele>824.4</ele>
        <time>2022-02-19T11:50:40Z</time>
      </trkpt>
      <trkpt lat="45.05562" lon="2.48008">
        <ele>825</ele>
        <time>2022-02-19T11:50:44Z</time>
      </trkpt>
      <trkpt lat="45.05562" lon="2.48009">
        <ele>825.2</ele>
        <time>2022-02-19T11:50:45Z</time>
      </trkpt>
      <trkpt lat="45.05562" lon="2.48009">
        <ele>825.4</ele>
        <time>2022-02-19T11:50:46Z</time>
      </trkpt>
      <trkpt lat="45.05564" lon="2.48015">
        <ele>826.4</ele>
        <time>2022-02-19T11:50:55Z</time>
      </trkpt>
      <trkpt lat="45.05563" lon="2.48019">
        <ele>826.8</ele>
        <time>2022-02-19T11:50:59Z</time>
      </trkpt>
      <trkpt lat="45.05564" lon="2.4802">
        <ele>827.6</ele>
        <time>2022-02-19T11:51:07Z</time>
      </trkpt>
      <trkpt lat="45.05562" lon="2.48015">
        <ele>827.4</ele>
        <time>2022-02-19T11:51:10Z</time>
      </trkpt>
      <trkpt lat="45.05561" lon="2.4801">
        <ele>826.6</ele>
        <time>2022-02-19T11:51:14Z</time>
      </trkpt>
      <trkpt lat="45.05561" lon="2.48008">
        <ele>826.2</ele>
        <time>2022-02-19T11:51:15Z</time>
      </trkpt>
      <trkpt lat="45.0556" lon="2.48008">
        <ele>826</ele>
        <time>2022-02-19T11:51:16Z</time>
      </trkpt>
      <trkpt lat="45.05557" lon="2.48003">
        <ele>825.2</ele>
        <time>2022-02-19T11:51:21Z</time>
      </trkpt>
      <trkpt lat="45.05555" lon="2.48001">
        <ele>824.4</ele>
        <time>2022-02-19T11:51:24Z</time>
      </trkpt>
      <trkpt lat="45.05555" lon="2.48">
        <ele>822.4</ele>
        <time>2022-02-19T11:51:25Z</time>
      </trkpt>
      <trkpt lat="45.05555" lon="2.47997">
        <ele>821.2</ele>
        <time>2022-02-19T11:51:32Z</time>
      </trkpt>
      <trkpt lat="45.05555" lon="2.47998">
        <ele>821</ele>
        <time>2022-02-19T11:51:36Z</time>
      </trkpt>
      <trkpt lat="45.05554" lon="2.47992">
        <ele>820.4</ele>
        <time>2022-02-19T11:51:47Z</time>
      </trkpt>
      <trkpt lat="45.05553" lon="2.47992">
        <ele>820.2</ele>
        <time>2022-02-19T11:51:48Z</time>
      </trkpt>
      <trkpt lat="45.05553" lon="2.47993">
        <ele>819.2</ele>
        <time>2022-02-19T11:51:52Z</time>
      </trkpt>
      <trkpt lat="45.05553" lon="2.47993">
        <ele>818.8</ele>
        <time>2022-02-19T11:51:58Z</time>
      </trkpt>
      <trkpt lat="45.05551" lon="2.47995">
        <ele>818.6</ele>
        <time>2022-02-19T11:52:12Z</time>
      </trkpt>
      <trkpt lat="45.05549" lon="2.48001">
        <ele>818</ele>
        <time>2022-02-19T11:52:22Z</time>
      </trkpt>
      <trkpt lat="45.05547" lon="2.48007">
        <ele>817.2</ele>
        <time>2022-02-19T11:52:29Z</time>
      </trkpt>
      <trkpt lat="45.05546" lon="2.48009">
        <ele>816.8</ele>
        <time>2022-02-19T11:52:32Z</time>
      </trkpt>
      <trkpt lat="45.05545" lon="2.48016">
        <ele>816</ele>
        <time>2022-02-19T11:52:41Z</time>
      </trkpt>
      <trkpt lat="45.05545" lon="2.48019">
        <ele>816</ele>
        <time>2022-02-19T11:52:45Z</time>
      </trkpt>
      <trkpt lat="45.05546" lon="2.48022">
        <ele>816.6</ele>
        <time>2022-02-19T11:52:57Z</time>
      </trkpt>
      <trkpt lat="45.05547" lon="2.48026">
        <ele>816</ele>
        <time>2022-02-19T11:53:11Z</time>
      </trkpt>
      <trkpt lat="45.0554" lon="2.48035">
        <ele>816</ele>
        <time>2022-02-19T11:53:23Z</time>
      </trkpt>
      <trkpt lat="45.05538" lon="2.48038">
        <ele>815.8</ele>
        <time>2022-02-19T11:53:26Z</time>
      </trkpt>
      <trkpt lat="45.05536" lon="2.48042">
        <ele>815.4</ele>
        <time>2022-02-19T11:53:30Z</time>
      </trkpt>
      <trkpt lat="45.05536" lon="2.48043">
        <ele>815.4</ele>
        <time>2022-02-19T11:53:32Z</time>
      </trkpt>
      <trkpt lat="45.05535" lon="2.48046">
        <ele>814.6</ele>
        <time>2022-02-19T11:53:36Z</time>
      </trkpt>
      <trkpt lat="45.05535" lon="2.48047">
        <ele>814.2</ele>
        <time>2022-02-19T11:53:40Z</time>
      </trkpt>
      <trkpt lat="45.05534" lon="2.48047">
        <ele>814.2</ele>
        <time>2022-02-19T11:53:41Z</time>
      </trkpt>
      <trkpt lat="45.05529" lon="2.48052">
        <ele>813.8</ele>
        <time>2022-02-19T11:53:48Z</time>
      </trkpt>
      <trkpt lat="45.05527" lon="2.48054">
        <ele>813.4</ele>
        <time>2022-02-19T11:53:50Z</time>
      </trkpt>
      <trkpt lat="45.05527" lon="2.48055">
        <ele>813.4</ele>
        <time>2022-02-19T11:53:51Z</time>
      </trkpt>
      <trkpt lat="45.05526" lon="2.48057">
        <ele>813.4</ele>
        <time>2022-02-19T11:53:53Z</time>
      </trkpt>
      <trkpt lat="45.05525" lon="2.48059">
        <ele>813.4</ele>
        <time>2022-02-19T11:53:55Z</time>
      </trkpt>
      <trkpt lat="45.05522" lon="2.48066">
        <ele>813.4</ele>
        <time>2022-02-19T11:54:01Z</time>
      </trkpt>
      <trkpt lat="45.05522" lon="2.48067">
        <ele>813.6</ele>
        <time>2022-02-19T11:54:02Z</time>
      </trkpt>
      <trkpt lat="45.05521" lon="2.48069">
        <ele>813.6</ele>
        <time>2022-02-19T11:54:05Z</time>
      </trkpt>
      <trkpt lat="45.05522" lon="2.48074">
        <ele>814.4</ele>
        <time>2022-02-19T11:54:09Z</time>
      </trkpt>
      <trkpt lat="45.05519" lon="2.48081">
        <ele>815</ele>
        <time>2022-02-19T11:54:15Z</time>
      </trkpt>
      <trkpt lat="45.05516" lon="2.48082">
        <ele>815</ele>
        <time>2022-02-19T11:54:17Z</time>
      </trkpt>
      <trkpt lat="45.05513" lon="2.48084">
        <ele>814.6</ele>
        <time>2022-02-19T11:54:20Z</time>
      </trkpt>
      <trkpt lat="45.05507" lon="2.48086">
        <ele>814.2</ele>
        <time>2022-02-19T11:54:25Z</time>
      </trkpt>
      <trkpt lat="45.05498" lon="2.48088">
        <ele>813.4</ele>
        <time>2022-02-19T11:54:34Z</time>
      </trkpt>
      <trkpt lat="45.05498" lon="2.48089">
        <ele>813.2</ele>
        <time>2022-02-19T11:54:35Z</time>
      </trkpt>
      <trkpt lat="45.05497" lon="2.48091">
        <ele>812.6</ele>
        <time>2022-02-19T11:54:38Z</time>
      </trkpt>
      <trkpt lat="45.05496" lon="2.48095">
        <ele>812.4</ele>
        <time>2022-02-19T11:54:41Z</time>
      </trkpt>
      <trkpt lat="45.05496" lon="2.48099">
        <ele>812.4</ele>
        <time>2022-02-19T11:54:43Z</time>
      </trkpt>
      <trkpt lat="45.05495" lon="2.48104">
        <ele>812</ele>
        <time>2022-02-19T11:54:46Z</time>
      </trkpt>
      <trkpt lat="45.0549" lon="2.48112">
        <ele>811.4</ele>
        <time>2022-02-19T11:54:55Z</time>
      </trkpt>
      <trkpt lat="45.05489" lon="2.48112">
        <ele>811.4</ele>
        <time>2022-02-19T11:54:58Z</time>
      </trkpt>
      <trkpt lat="45.05489" lon="2.48121">
        <ele>811.2</ele>
        <time>2022-02-19T11:55:10Z</time>
      </trkpt>
      <trkpt lat="45.05488" lon="2.48122">
        <ele>811.2</ele>
        <time>2022-02-19T11:55:12Z</time>
      </trkpt>
      <trkpt lat="45.05486" lon="2.48128">
        <ele>810.2</ele>
        <time>2022-02-19T11:55:19Z</time>
      </trkpt>
      <trkpt lat="45.05486" lon="2.48129">
        <ele>810.2</ele>
        <time>2022-02-19T11:55:20Z</time>
      </trkpt>
      <trkpt lat="45.05484" lon="2.48131">
        <ele>809.4</ele>
        <time>2022-02-19T11:55:23Z</time>
      </trkpt>
      <trkpt lat="45.05484" lon="2.48131">
        <ele>809</ele>
        <time>2022-02-19T11:55:24Z</time>
      </trkpt>
      <trkpt lat="45.05483" lon="2.4813">
        <ele>808.6</ele>
        <time>2022-02-19T11:55:25Z</time>
      </trkpt>
      <trkpt lat="45.05483" lon="2.4813">
        <ele>808.6</ele>
        <time>2022-02-19T11:55:26Z</time>
      </trkpt>
      <trkpt lat="45.0548" lon="2.48127">
        <ele>808.2</ele>
        <time>2022-02-19T11:55:29Z</time>
      </trkpt>
      <trkpt lat="45.05479" lon="2.48127">
        <ele>808.2</ele>
        <time>2022-02-19T11:55:31Z</time>
      </trkpt>
      <trkpt lat="45.05478" lon="2.48128">
        <ele>807.8</ele>
        <time>2022-02-19T11:55:33Z</time>
      </trkpt>
      <trkpt lat="45.05477" lon="2.48128">
        <ele>807.4</ele>
        <time>2022-02-19T11:55:35Z</time>
      </trkpt>
      <trkpt lat="45.05477" lon="2.48133">
        <ele>806.4</ele>
        <time>2022-02-19T11:55:39Z</time>
      </trkpt>
      <trkpt lat="45.05475" lon="2.48138">
        <ele>805.4</ele>
        <time>2022-02-19T11:55:47Z</time>
      </trkpt>
      <trkpt lat="45.05475" lon="2.48138">
        <ele>805</ele>
        <time>2022-02-19T11:55:51Z</time>
      </trkpt>
      <trkpt lat="45.0547" lon="2.48138">
        <ele>804.6</ele>
        <time>2022-02-19T11:56:06Z</time>
      </trkpt>
      <trkpt lat="45.05465" lon="2.48141">
        <ele>805</ele>
        <time>2022-02-19T11:56:18Z</time>
      </trkpt>
      <trkpt lat="45.0546" lon="2.48139">
        <ele>804.8</ele>
        <time>2022-02-19T11:56:30Z</time>
      </trkpt>
      <trkpt lat="45.05447" lon="2.48134">
        <ele>805.8</ele>
        <time>2022-02-19T11:56:41Z</time>
      </trkpt>
      <trkpt lat="45.05446" lon="2.48135">
        <ele>805.8</ele>
        <time>2022-02-19T11:56:42Z</time>
      </trkpt>
      <trkpt lat="45.05444" lon="2.48127">
        <ele>806</ele>
        <time>2022-02-19T11:56:49Z</time>
      </trkpt>
      <trkpt lat="45.05441" lon="2.48117">
        <ele>805.2</ele>
        <time>2022-02-19T11:57:02Z</time>
      </trkpt>
      <trkpt lat="45.05441" lon="2.48106">
        <ele>805.2</ele>
        <time>2022-02-19T11:57:14Z</time>
      </trkpt>
      <trkpt lat="45.05442" lon="2.48105">
        <ele>805.2</ele>
        <time>2022-02-19T11:57:23Z</time>
      </trkpt>
      <trkpt lat="45.05443" lon="2.48105">
        <ele>805.2</ele>
        <time>2022-02-19T11:57:33Z</time>
      </trkpt>
      <trkpt lat="45.05441" lon="2.48092">
        <ele>805</ele>
        <time>2022-02-19T11:57:44Z</time>
      </trkpt>
      <trkpt lat="45.05441" lon="2.48089">
        <ele>805.8</ele>
        <time>2022-02-19T11:57:53Z</time>
      </trkpt>
      <trkpt lat="45.05439" lon="2.48079">
        <ele>805</ele>
        <time>2022-02-19T11:58:04Z</time>
      </trkpt>
      <trkpt lat="45.05443" lon="2.4807">
        <ele>804.6</ele>
        <time>2022-02-19T11:58:17Z</time>
      </trkpt>
      <trkpt lat="45.05446" lon="2.48062">
        <ele>804.6</ele>
        <time>2022-02-19T11:58:30Z</time>
      </trkpt>
      <trkpt lat="45.05447" lon="2.48057">
        <ele>804.4</ele>
        <time>2022-02-19T11:58:35Z</time>
      </trkpt>
      <trkpt lat="45.05448" lon="2.48047">
        <ele>803.8</ele>
        <time>2022-02-19T11:58:43Z</time>
      </trkpt>
      <trkpt lat="45.05449" lon="2.48043">
        <ele>803.4</ele>
        <time>2022-02-19T11:58:48Z</time>
      </trkpt>
      <trkpt lat="45.05449" lon="2.4804">
        <ele>803</ele>
        <time>2022-02-19T11:58:54Z</time>
      </trkpt>
      <trkpt lat="45.05447" lon="2.48036">
        <ele>803</ele>
        <time>2022-02-19T11:59:10Z</time>
      </trkpt>
      <trkpt lat="45.05447" lon="2.48038">
        <ele>803</ele>
        <time>2022-02-19T11:59:20Z</time>
      </trkpt>
      <trkpt lat="45.05446" lon="2.48043">
        <ele>803</ele>
        <time>2022-02-19T11:59:36Z</time>
      </trkpt>
      <trkpt lat="45.05447" lon="2.48056">
        <ele>804.4</ele>
        <time>2022-02-19T11:59:50Z</time>
      </trkpt>
      <trkpt lat="45.05447" lon="2.48057">
        <ele>804.4</ele>
        <time>2022-02-19T11:59:51Z</time>
      </trkpt>
      <trkpt lat="45.05444" lon="2.4807">
        <ele>805.2</ele>
        <time>2022-02-19T12:00:03Z</time>
      </trkpt>
      <trkpt lat="45.05444" lon="2.48078">
        <ele>805.2</ele>
        <time>2022-02-19T12:00:10Z</time>
      </trkpt>
      <trkpt lat="45.05444" lon="2.4808">
        <ele>805.2</ele>
        <time>2022-02-19T12:00:12Z</time>
      </trkpt>
      <trkpt lat="45.05444" lon="2.48084">
        <ele>805.2</ele>
        <time>2022-02-19T12:00:15Z</time>
      </trkpt>
      <trkpt lat="45.05442" lon="2.48091">
        <ele>805.2</ele>
        <time>2022-02-19T12:00:18Z</time>
      </trkpt>
      <trkpt lat="45.05439" lon="2.48096">
        <ele>805</ele>
        <time>2022-02-19T12:00:21Z</time>
      </trkpt>
      <trkpt lat="45.05435" lon="2.48108">
        <ele>805</ele>
        <time>2022-02-19T12:00:31Z</time>
      </trkpt>
      <trkpt lat="45.05435" lon="2.48109">
        <ele>805</ele>
        <time>2022-02-19T12:00:33Z</time>
      </trkpt>
      <trkpt lat="45.05439" lon="2.48114">
        <ele>805</ele>
        <time>2022-02-19T12:00:43Z</time>
      </trkpt>
      <trkpt lat="45.05438" lon="2.48112">
        <ele>804.2</ele>
        <time>2022-02-19T12:00:50Z</time>
      </trkpt>
      <trkpt lat="45.05439" lon="2.48107">
        <ele>803.4</ele>
        <time>2022-02-19T12:00:54Z</time>
      </trkpt>
      <trkpt lat="45.05439" lon="2.48102">
        <ele>803</ele>
        <time>2022-02-19T12:00:57Z</time>
      </trkpt>
      <trkpt lat="45.0544" lon="2.48097">
        <ele>802.4</ele>
        <time>2022-02-19T12:01:01Z</time>
      </trkpt>
      <trkpt lat="45.05438" lon="2.48095">
        <ele>802</ele>
        <time>2022-02-19T12:01:03Z</time>
      </trkpt>
      <trkpt lat="45.05437" lon="2.48091">
        <ele>801.2</ele>
        <time>2022-02-19T12:01:07Z</time>
      </trkpt>
      <trkpt lat="45.05437" lon="2.48085">
        <ele>800</ele>
        <time>2022-02-19T12:01:12Z</time>
      </trkpt>
      <trkpt lat="45.05436" lon="2.48077">
        <ele>798.8</ele>
        <time>2022-02-19T12:01:17Z</time>
      </trkpt>
      <trkpt lat="45.05436" lon="2.48069">
        <ele>797.6</ele>
        <time>2022-02-19T12:01:23Z</time>
      </trkpt>
      <trkpt lat="45.05434" lon="2.48064">
        <ele>796.6</ele>
        <time>2022-02-19T12:01:29Z</time>
      </trkpt>
      <trkpt lat="45.05433" lon="2.48061">
        <ele>796.4</ele>
        <time>2022-02-19T12:01:31Z</time>
      </trkpt>
      <trkpt lat="45.05428" lon="2.48057">
        <ele>795.6</ele>
        <time>2022-02-19T12:01:36Z</time>
      </trkpt>
      <trkpt lat="45.05426" lon="2.48056">
        <ele>795.2</ele>
        <time>2022-02-19T12:01:38Z</time>
      </trkpt>
      <trkpt lat="45.05427" lon="2.48051">
        <ele>795</ele>
        <time>2022-02-19T12:01:43Z</time>
      </trkpt>
      <trkpt lat="45.05428" lon="2.48046">
        <ele>794.6</ele>
        <time>2022-02-19T12:01:48Z</time>
      </trkpt>
      <trkpt lat="45.05429" lon="2.48046">
        <ele>794.4</ele>
        <time>2022-02-19T12:01:49Z</time>
      </trkpt>
      <trkpt lat="45.05429" lon="2.48043">
        <ele>793.2</ele>
        <time>2022-02-19T12:01:54Z</time>
      </trkpt>
      <trkpt lat="45.05429" lon="2.48041">
        <ele>792.2</ele>
        <time>2022-02-19T12:01:58Z</time>
      </trkpt>
      <trkpt lat="45.05429" lon="2.48041">
        <ele>792</ele>
        <time>2022-02-19T12:01:59Z</time>
      </trkpt>
      <trkpt lat="45.0543" lon="2.48043">
        <ele>791.6</ele>
        <time>2022-02-19T12:02:12Z</time>
      </trkpt>
      <trkpt lat="45.05432" lon="2.48047">
        <ele>793.4</ele>
        <time>2022-02-19T12:02:24Z</time>
      </trkpt>
      <trkpt lat="45.05431" lon="2.48048">
        <ele>793.8</ele>
        <time>2022-02-19T12:02:26Z</time>
      </trkpt>
      <trkpt lat="45.0543" lon="2.48048">
        <ele>794.2</ele>
        <time>2022-02-19T12:02:27Z</time>
      </trkpt>
      <trkpt lat="45.0543" lon="2.48049">
        <ele>794.4</ele>
        <time>2022-02-19T12:02:28Z</time>
      </trkpt>
      <trkpt lat="45.05428" lon="2.48057">
        <ele>795.4</ele>
        <time>2022-02-19T12:02:36Z</time>
      </trkpt>
      <trkpt lat="45.05428" lon="2.48059">
        <ele>795.8</ele>
        <time>2022-02-19T12:02:38Z</time>
      </trkpt>
      <trkpt lat="45.05429" lon="2.48061">
        <ele>796.4</ele>
        <time>2022-02-19T12:02:40Z</time>
      </trkpt>
      <trkpt lat="45.05431" lon="2.48067">
        <ele>797.8</ele>
        <time>2022-02-19T12:02:46Z</time>
      </trkpt>
      <trkpt lat="45.05433" lon="2.48072">
        <ele>798.8</ele>
        <time>2022-02-19T12:02:52Z</time>
      </trkpt>
      <trkpt lat="45.05436" lon="2.48075">
        <ele>799</ele>
        <time>2022-02-19T12:02:54Z</time>
      </trkpt>
      <trkpt lat="45.05436" lon="2.48078">
        <ele>798.6</ele>
        <time>2022-02-19T12:02:57Z</time>
      </trkpt>
      <trkpt lat="45.05437" lon="2.48081">
        <ele>798.6</ele>
        <time>2022-02-19T12:02:59Z</time>
      </trkpt>
      <trkpt lat="45.05437" lon="2.48095">
        <ele>799.6</ele>
        <time>2022-02-19T12:03:04Z</time>
      </trkpt>
      <trkpt lat="45.05437" lon="2.48097">
        <ele>799.8</ele>
        <time>2022-02-19T12:03:06Z</time>
      </trkpt>
      <trkpt lat="45.05436" lon="2.48097">
        <ele>799.8</ele>
        <time>2022-02-19T12:03:07Z</time>
      </trkpt>
      <trkpt lat="45.05436" lon="2.48106">
        <ele>800.6</ele>
        <time>2022-02-19T12:03:16Z</time>
      </trkpt>
      <trkpt lat="45.05436" lon="2.48107">
        <ele>800.8</ele>
        <time>2022-02-19T12:03:17Z</time>
      </trkpt>
      <trkpt lat="45.05436" lon="2.48108">
        <ele>801</ele>
        <time>2022-02-19T12:03:18Z</time>
      </trkpt>
      <trkpt lat="45.05438" lon="2.48111">
        <ele>802</ele>
        <time>2022-02-19T12:03:22Z</time>
      </trkpt>
      <trkpt lat="45.05442" lon="2.48115">
        <ele>803</ele>
        <time>2022-02-19T12:03:28Z</time>
      </trkpt>
      <trkpt lat="45.05443" lon="2.48116">
        <ele>803.2</ele>
        <time>2022-02-19T12:03:29Z</time>
      </trkpt>
      <trkpt lat="45.05447" lon="2.48122">
        <ele>803.6</ele>
        <time>2022-02-19T12:03:36Z</time>
      </trkpt>
      <trkpt lat="45.05449" lon="2.48132">
        <ele>804</ele>
        <time>2022-02-19T12:03:46Z</time>
      </trkpt>
      <trkpt lat="45.05449" lon="2.48132">
        <ele>804</ele>
        <time>2022-02-19T12:03:48Z</time>
      </trkpt>
      <trkpt lat="45.05448" lon="2.48137">
        <ele>804</ele>
        <time>2022-02-19T12:03:59Z</time>
      </trkpt>
      <trkpt lat="45.05448" lon="2.48141">
        <ele>804.2</ele>
        <time>2022-02-19T12:04:02Z</time>
      </trkpt>
      <trkpt lat="45.05449" lon="2.4815">
        <ele>805</ele>
        <time>2022-02-19T12:04:09Z</time>
      </trkpt>
      <trkpt lat="45.05448" lon="2.48151">
        <ele>805.4</ele>
        <time>2022-02-19T12:04:11Z</time>
      </trkpt>
      <trkpt lat="45.05448" lon="2.48151">
        <ele>805.6</ele>
        <time>2022-02-19T12:04:12Z</time>
      </trkpt>
      <trkpt lat="45.05448" lon="2.48161">
        <ele>806.2</ele>
        <time>2022-02-19T12:04:23Z</time>
      </trkpt>
      <trkpt lat="45.05449" lon="2.48164">
        <ele>806.6</ele>
        <time>2022-02-19T12:04:25Z</time>
      </trkpt>
      <trkpt lat="45.0545" lon="2.48167">
        <ele>806.8</ele>
        <time>2022-02-19T12:04:27Z</time>
      </trkpt>
      <trkpt lat="45.05451" lon="2.48175">
        <ele>807.8</ele>
        <time>2022-02-19T12:04:33Z</time>
      </trkpt>
      <trkpt lat="45.05452" lon="2.48182">
        <ele>808.4</ele>
        <time>2022-02-19T12:04:38Z</time>
      </trkpt>
      <trkpt lat="45.05443" lon="2.48184">
        <ele>809</ele>
        <time>2022-02-19T12:04:42Z</time>
      </trkpt>
      <trkpt lat="45.05437" lon="2.48186">
        <ele>809</ele>
        <time>2022-02-19T12:04:44Z</time>
      </trkpt>
      <trkpt lat="45.05434" lon="2.48187">
        <ele>809</ele>
        <time>2022-02-19T12:04:46Z</time>
      </trkpt>
      <trkpt lat="45.05427" lon="2.48183">
        <ele>808.8</ele>
        <time>2022-02-19T12:04:54Z</time>
      </trkpt>
      <trkpt lat="45.05428" lon="2.48185">
        <ele>808.6</ele>
        <time>2022-02-19T12:05:07Z</time>
      </trkpt>
      <trkpt lat="45.05432" lon="2.4819">
        <ele>808.8</ele>
        <time>2022-02-19T12:05:10Z</time>
      </trkpt>
      <trkpt lat="45.05433" lon="2.48192">
        <ele>808.8</ele>
        <time>2022-02-19T12:05:12Z</time>
      </trkpt>
      <trkpt lat="45.05435" lon="2.48196">
        <ele>809</ele>
        <time>2022-02-19T12:05:16Z</time>
      </trkpt>
      <trkpt lat="45.05437" lon="2.48203">
        <ele>809.2</ele>
        <time>2022-02-19T12:05:20Z</time>
      </trkpt>
      <trkpt lat="45.05441" lon="2.48224">
        <ele>809.4</ele>
        <time>2022-02-19T12:05:29Z</time>
      </trkpt>
      <trkpt lat="45.05442" lon="2.48232">
        <ele>809.6</ele>
        <time>2022-02-19T12:05:34Z</time>
      </trkpt>
      <trkpt lat="45.05442" lon="2.48235">
        <ele>809.6</ele>
        <time>2022-02-19T12:05:39Z</time>
      </trkpt>
      <trkpt lat="45.05442" lon="2.48236">
        <ele>809.6</ele>
        <time>2022-02-19T12:05:40Z</time>
      </trkpt>
      <trkpt lat="45.05438" lon="2.48246">
        <ele>809</ele>
        <time>2022-02-19T12:05:49Z</time>
      </trkpt>
      <trkpt lat="45.05432" lon="2.48251">
        <ele>808.6</ele>
        <time>2022-02-19T12:05:58Z</time>
      </trkpt>
      <trkpt lat="45.05432" lon="2.48251">
        <ele>808.6</ele>
        <time>2022-02-19T12:05:59Z</time>
      </trkpt>
      <trkpt lat="45.0543" lon="2.48253">
        <ele>808.6</ele>
        <time>2022-02-19T12:06:08Z</time>
      </trkpt>
      <trkpt lat="45.05429" lon="2.4826">
        <ele>808.6</ele>
        <time>2022-02-19T12:06:20Z</time>
      </trkpt>
      <trkpt lat="45.05434" lon="2.48263">
        <ele>808.6</ele>
        <time>2022-02-19T12:06:32Z</time>
      </trkpt>
      <trkpt lat="45.05436" lon="2.48268">
        <ele>808.6</ele>
        <time>2022-02-19T12:06:44Z</time>
      </trkpt>
      <trkpt lat="45.05434" lon="2.48273">
        <ele>808.6</ele>
        <time>2022-02-19T12:06:55Z</time>
      </trkpt>
      <trkpt lat="45.05432" lon="2.48278">
        <ele>808.6</ele>
        <time>2022-02-19T12:07:10Z</time>
      </trkpt>
      <trkpt lat="45.05427" lon="2.48283">
        <ele>805.2</ele>
        <time>2022-02-19T12:07:16Z</time>
      </trkpt>
      <trkpt lat="45.05424" lon="2.4829">
        <ele>804.8</ele>
        <time>2022-02-19T12:07:22Z</time>
      </trkpt>
      <trkpt lat="45.05423" lon="2.48298">
        <ele>804.2</ele>
        <time>2022-02-19T12:07:29Z</time>
      </trkpt>
      <trkpt lat="45.05421" lon="2.48303">
        <ele>803.4</ele>
        <time>2022-02-19T12:07:34Z</time>
      </trkpt>
      <trkpt lat="45.05419" lon="2.48305">
        <ele>803.2</ele>
        <time>2022-02-19T12:07:38Z</time>
      </trkpt>
      <trkpt lat="45.05415" lon="2.48311">
        <ele>802.4</ele>
        <time>2022-02-19T12:07:44Z</time>
      </trkpt>
      <trkpt lat="45.05413" lon="2.48314">
        <ele>802</ele>
        <time>2022-02-19T12:07:47Z</time>
      </trkpt>
      <trkpt lat="45.05412" lon="2.48315">
        <ele>802</ele>
        <time>2022-02-19T12:07:48Z</time>
      </trkpt>
      <trkpt lat="45.0541" lon="2.48323">
        <ele>801</ele>
        <time>2022-02-19T12:07:54Z</time>
      </trkpt>
      <trkpt lat="45.05406" lon="2.48335">
        <ele>800</ele>
        <time>2022-02-19T12:08:03Z</time>
      </trkpt>
      <trkpt lat="45.05402" lon="2.48343">
        <ele>799</ele>
        <time>2022-02-19T12:08:11Z</time>
      </trkpt>
      <trkpt lat="45.05394" lon="2.4835">
        <ele>798.6</ele>
        <time>2022-02-19T12:08:18Z</time>
      </trkpt>
      <trkpt lat="45.05387" lon="2.48355">
        <ele>798</ele>
        <time>2022-02-19T12:08:25Z</time>
      </trkpt>
      <trkpt lat="45.05383" lon="2.4836">
        <ele>797.6</ele>
        <time>2022-02-19T12:08:32Z</time>
      </trkpt>
      <trkpt lat="45.05381" lon="2.48365">
        <ele>797</ele>
        <time>2022-02-19T12:08:37Z</time>
      </trkpt>
      <trkpt lat="45.05375" lon="2.48376">
        <ele>796.4</ele>
        <time>2022-02-19T12:08:48Z</time>
      </trkpt>
      <trkpt lat="45.05375" lon="2.48379">
        <ele>795.8</ele>
        <time>2022-02-19T12:08:53Z</time>
      </trkpt>
      <trkpt lat="45.05371" lon="2.4838">
        <ele>795.8</ele>
        <time>2022-02-19T12:08:55Z</time>
      </trkpt>
      <trkpt lat="45.05371" lon="2.48381">
        <ele>795.6</ele>
        <time>2022-02-19T12:08:56Z</time>
      </trkpt>
      <trkpt lat="45.05369" lon="2.48386">
        <ele>795.4</ele>
        <time>2022-02-19T12:09:03Z</time>
      </trkpt>
      <trkpt lat="45.05365" lon="2.48386">
        <ele>795</ele>
        <time>2022-02-19T12:09:06Z</time>
      </trkpt>
      <trkpt lat="45.05364" lon="2.48386">
        <ele>794.8</ele>
        <time>2022-02-19T12:09:07Z</time>
      </trkpt>
      <trkpt lat="45.05354" lon="2.48384">
        <ele>794.4</ele>
        <time>2022-02-19T12:09:15Z</time>
      </trkpt>
      <trkpt lat="45.05348" lon="2.48387">
        <ele>793.8</ele>
        <time>2022-02-19T12:09:21Z</time>
      </trkpt>
      <trkpt lat="45.05342" lon="2.48393">
        <ele>794</ele>
        <time>2022-02-19T12:09:29Z</time>
      </trkpt>
      <trkpt lat="45.05336" lon="2.48402">
        <ele>793</ele>
        <time>2022-02-19T12:09:42Z</time>
      </trkpt>
      <trkpt lat="45.05336" lon="2.48405">
        <ele>793.2</ele>
        <time>2022-02-19T12:09:54Z</time>
      </trkpt>
      <trkpt lat="45.0534" lon="2.48404">
        <ele>793.6</ele>
        <time>2022-02-19T12:10:06Z</time>
      </trkpt>
      <trkpt lat="45.05349" lon="2.48395">
        <ele>794.2</ele>
        <time>2022-02-19T12:10:19Z</time>
      </trkpt>
      <trkpt lat="45.05357" lon="2.48393">
        <ele>794.8</ele>
        <time>2022-02-19T12:10:28Z</time>
      </trkpt>
      <trkpt lat="45.05363" lon="2.4839">
        <ele>795.6</ele>
        <time>2022-02-19T12:10:34Z</time>
      </trkpt>
      <trkpt lat="45.05365" lon="2.48388">
        <ele>796</ele>
        <time>2022-02-19T12:10:36Z</time>
      </trkpt>
      <trkpt lat="45.05367" lon="2.48383">
        <ele>796.4</ele>
        <time>2022-02-19T12:10:44Z</time>
      </trkpt>
      <trkpt lat="45.05366" lon="2.48383">
        <ele>796.6</ele>
        <time>2022-02-19T12:10:47Z</time>
      </trkpt>
      <trkpt lat="45.05363" lon="2.48388">
        <ele>797</ele>
        <time>2022-02-19T12:10:56Z</time>
      </trkpt>
      <trkpt lat="45.05363" lon="2.48388">
        <ele>797.2</ele>
        <time>2022-02-19T12:10:57Z</time>
      </trkpt>
      <trkpt lat="45.05359" lon="2.48395">
        <ele>797.2</ele>
        <time>2022-02-19T12:11:10Z</time>
      </trkpt>
      <trkpt lat="45.05349" lon="2.4841">
        <ele>798</ele>
        <time>2022-02-19T12:11:21Z</time>
      </trkpt>
      <trkpt lat="45.05343" lon="2.48419">
        <ele>798.2</ele>
        <time>2022-02-19T12:11:28Z</time>
      </trkpt>
      <trkpt lat="45.05337" lon="2.48433">
        <ele>799</ele>
        <time>2022-02-19T12:11:38Z</time>
      </trkpt>
      <trkpt lat="45.05338" lon="2.48437">
        <ele>799.2</ele>
        <time>2022-02-19T12:11:40Z</time>
      </trkpt>
      <trkpt lat="45.05339" lon="2.48452">
        <ele>800</ele>
        <time>2022-02-19T12:11:48Z</time>
      </trkpt>
      <trkpt lat="45.0534" lon="2.48465">
        <ele>800</ele>
        <time>2022-02-19T12:11:54Z</time>
      </trkpt>
      <trkpt lat="45.0534" lon="2.48472">
        <ele>800.4</ele>
        <time>2022-02-19T12:11:58Z</time>
      </trkpt>
      <trkpt lat="45.05339" lon="2.48481">
        <ele>800.6</ele>
        <time>2022-02-19T12:12:03Z</time>
      </trkpt>
      <trkpt lat="45.05339" lon="2.48506">
        <ele>801.2</ele>
        <time>2022-02-19T12:12:18Z</time>
      </trkpt>
      <trkpt lat="45.05339" lon="2.48508">
        <ele>801.6</ele>
        <time>2022-02-19T12:12:19Z</time>
      </trkpt>
      <trkpt lat="45.05343" lon="2.48525">
        <ele>802.2</ele>
        <time>2022-02-19T12:12:33Z</time>
      </trkpt>
      <trkpt lat="45.05348" lon="2.48529">
        <ele>803</ele>
        <time>2022-02-19T12:12:39Z</time>
      </trkpt>
      <trkpt lat="45.05349" lon="2.4853">
        <ele>803.2</ele>
        <time>2022-02-19T12:12:40Z</time>
      </trkpt>
      <trkpt lat="45.05353" lon="2.48536">
        <ele>803.8</ele>
        <time>2022-02-19T12:12:46Z</time>
      </trkpt>
      <trkpt lat="45.05354" lon="2.48538">
        <ele>804</ele>
        <time>2022-02-19T12:12:48Z</time>
      </trkpt>
      <trkpt lat="45.05358" lon="2.48547">
        <ele>804.4</ele>
        <time>2022-02-19T12:12:57Z</time>
      </trkpt>
      <trkpt lat="45.05359" lon="2.48548">
        <ele>804.6</ele>
        <time>2022-02-19T12:13:00Z</time>
      </trkpt>
      <trkpt lat="45.05364" lon="2.48549">
        <ele>805</ele>
        <time>2022-02-19T12:13:05Z</time>
      </trkpt>
      <trkpt lat="45.05364" lon="2.48549">
        <ele>805</ele>
        <time>2022-02-19T12:13:06Z</time>
      </trkpt>
      <trkpt lat="45.05368" lon="2.48549">
        <ele>806</ele>
        <time>2022-02-19T12:13:10Z</time>
      </trkpt>
      <trkpt lat="45.05372" lon="2.48549">
        <ele>807.2</ele>
        <time>2022-02-19T12:13:14Z</time>
      </trkpt>
      <trkpt lat="45.05374" lon="2.48548">
        <ele>808.2</ele>
        <time>2022-02-19T12:13:17Z</time>
      </trkpt>
      <trkpt lat="45.05381" lon="2.4855">
        <ele>809.2</ele>
        <time>2022-02-19T12:13:24Z</time>
      </trkpt>
      <trkpt lat="45.05383" lon="2.48554">
        <ele>810.4</ele>
        <time>2022-02-19T12:13:28Z</time>
      </trkpt>
      <trkpt lat="45.05386" lon="2.48559">
        <ele>811.6</ele>
        <time>2022-02-19T12:13:34Z</time>
      </trkpt>
      <trkpt lat="45.05387" lon="2.4856">
        <ele>812</ele>
        <time>2022-02-19T12:13:36Z</time>
      </trkpt>
      <trkpt lat="45.05389" lon="2.48562">
        <ele>812.6</ele>
        <time>2022-02-19T12:13:39Z</time>
      </trkpt>
      <trkpt lat="45.05393" lon="2.4857">
        <ele>813.8</ele>
        <time>2022-02-19T12:13:45Z</time>
      </trkpt>
      <trkpt lat="45.05394" lon="2.48574">
        <ele>813.8</ele>
        <time>2022-02-19T12:13:49Z</time>
      </trkpt>
      <trkpt lat="45.05397" lon="2.4858">
        <ele>815</ele>
        <time>2022-02-19T12:13:55Z</time>
      </trkpt>
      <trkpt lat="45.05398" lon="2.48583">
        <ele>816.2</ele>
        <time>2022-02-19T12:14:00Z</time>
      </trkpt>
      <trkpt lat="45.05399" lon="2.48586">
        <ele>817.2</ele>
        <time>2022-02-19T12:14:03Z</time>
      </trkpt>
      <trkpt lat="45.05399" lon="2.48588">
        <ele>817.6</ele>
        <time>2022-02-19T12:14:05Z</time>
      </trkpt>
      <trkpt lat="45.05399" lon="2.48588">
        <ele>818.4</ele>
        <time>2022-02-19T12:14:10Z</time>
      </trkpt>
      <trkpt lat="45.05401" lon="2.48585">
        <ele>819.4</ele>
        <time>2022-02-19T12:14:14Z</time>
      </trkpt>
      <trkpt lat="45.05401" lon="2.48584">
        <ele>819.6</ele>
        <time>2022-02-19T12:14:15Z</time>
      </trkpt>
      <trkpt lat="45.05407" lon="2.48581">
        <ele>820.6</ele>
        <time>2022-02-19T12:14:22Z</time>
      </trkpt>
      <trkpt lat="45.05412" lon="2.48579">
        <ele>821.2</ele>
        <time>2022-02-19T12:14:26Z</time>
      </trkpt>
      <trkpt lat="45.05416" lon="2.48572">
        <ele>821.8</ele>
        <time>2022-02-19T12:14:34Z</time>
      </trkpt>
      <trkpt lat="45.05416" lon="2.48565">
        <ele>822.6</ele>
        <time>2022-02-19T12:14:40Z</time>
      </trkpt>
      <trkpt lat="45.05416" lon="2.4856">
        <ele>823</ele>
        <time>2022-02-19T12:14:44Z</time>
      </trkpt>
      <trkpt lat="45.05418" lon="2.48555">
        <ele>824</ele>
        <time>2022-02-19T12:14:49Z</time>
      </trkpt>
      <trkpt lat="45.05419" lon="2.48551">
        <ele>825</ele>
        <time>2022-02-19T12:14:53Z</time>
      </trkpt>
      <trkpt lat="45.0542" lon="2.48548">
        <ele>825.2</ele>
        <time>2022-02-19T12:14:55Z</time>
      </trkpt>
      <trkpt lat="45.05421" lon="2.48544">
        <ele>826.2</ele>
        <time>2022-02-19T12:15:00Z</time>
      </trkpt>
      <trkpt lat="45.05423" lon="2.48538">
        <ele>827</ele>
        <time>2022-02-19T12:15:06Z</time>
      </trkpt>
      <trkpt lat="45.05425" lon="2.48534">
        <ele>827.2</ele>
        <time>2022-02-19T12:15:10Z</time>
      </trkpt>
      <trkpt lat="45.05426" lon="2.48528">
        <ele>828.4</ele>
        <time>2022-02-19T12:15:15Z</time>
      </trkpt>
      <trkpt lat="45.05427" lon="2.48521">
        <ele>828.8</ele>
        <time>2022-02-19T12:15:21Z</time>
      </trkpt>
      <trkpt lat="45.05428" lon="2.48519">
        <ele>829.6</ele>
        <time>2022-02-19T12:15:25Z</time>
      </trkpt>
      <trkpt lat="45.05428" lon="2.48518">
        <ele>830.2</ele>
        <time>2022-02-19T12:15:31Z</time>
      </trkpt>
      <trkpt lat="45.05429" lon="2.4852">
        <ele>830.2</ele>
        <time>2022-02-19T12:15:33Z</time>
      </trkpt>
      <trkpt lat="45.05433" lon="2.4853">
        <ele>830.4</ele>
        <time>2022-02-19T12:15:48Z</time>
      </trkpt>
      <trkpt lat="45.05434" lon="2.4853">
        <ele>830.6</ele>
        <time>2022-02-19T12:15:49Z</time>
      </trkpt>
      <trkpt lat="45.05436" lon="2.48541">
        <ele>831.8</ele>
        <time>2022-02-19T12:15:57Z</time>
      </trkpt>
      <trkpt lat="45.05437" lon="2.48543">
        <ele>832</ele>
        <time>2022-02-19T12:15:58Z</time>
      </trkpt>
      <trkpt lat="45.05437" lon="2.48545">
        <ele>832.6</ele>
        <time>2022-02-19T12:16:00Z</time>
      </trkpt>
      <trkpt lat="45.05437" lon="2.48546">
        <ele>832.8</ele>
        <time>2022-02-19T12:16:01Z</time>
      </trkpt>
      <trkpt lat="45.05438" lon="2.48549">
        <ele>833.2</ele>
        <time>2022-02-19T12:16:04Z</time>
      </trkpt>
      <trkpt lat="45.05437" lon="2.48553">
        <ele>834</ele>
        <time>2022-02-19T12:16:09Z</time>
      </trkpt>
      <trkpt lat="45.0544" lon="2.48558">
        <ele>835</ele>
        <time>2022-02-19T12:16:14Z</time>
      </trkpt>
      <trkpt lat="45.0544" lon="2.48558">
        <ele>835</ele>
        <time>2022-02-19T12:16:15Z</time>
      </trkpt>
      <trkpt lat="45.05439" lon="2.48559">
        <ele>836</ele>
        <time>2022-02-19T12:16:20Z</time>
      </trkpt>
      <trkpt lat="45.05438" lon="2.48556">
        <ele>836.6</ele>
        <time>2022-02-19T12:16:25Z</time>
      </trkpt>
      <trkpt lat="45.05436" lon="2.48547">
        <ele>837.2</ele>
        <time>2022-02-19T12:16:31Z</time>
      </trkpt>
      <trkpt lat="45.05435" lon="2.48541">
        <ele>837.6</ele>
        <time>2022-02-19T12:16:34Z</time>
      </trkpt>
      <trkpt lat="45.05435" lon="2.48527">
        <ele>838.2</ele>
        <time>2022-02-19T12:16:43Z</time>
      </trkpt>
      <trkpt lat="45.05438" lon="2.48521">
        <ele>839</ele>
        <time>2022-02-19T12:16:48Z</time>
      </trkpt>
      <trkpt lat="45.05439" lon="2.48519">
        <ele>839.4</ele>
        <time>2022-02-19T12:16:50Z</time>
      </trkpt>
      <trkpt lat="45.05441" lon="2.48512">
        <ele>840.4</ele>
        <time>2022-02-19T12:16:57Z</time>
      </trkpt>
      <trkpt lat="45.05442" lon="2.48503">
        <ele>841.6</ele>
        <time>2022-02-19T12:17:04Z</time>
      </trkpt>
      <trkpt lat="45.05444" lon="2.48499">
        <ele>842.8</ele>
        <time>2022-02-19T12:17:12Z</time>
      </trkpt>
      <trkpt lat="45.05443" lon="2.485">
        <ele>843</ele>
        <time>2022-02-19T12:17:18Z</time>
      </trkpt>
      <trkpt lat="45.05444" lon="2.48505">
        <ele>843.8</ele>
        <time>2022-02-19T12:17:26Z</time>
      </trkpt>
      <trkpt lat="45.05447" lon="2.48506">
        <ele>844.2</ele>
        <time>2022-02-19T12:17:29Z</time>
      </trkpt>
      <trkpt lat="45.05446" lon="2.48511">
        <ele>845</ele>
        <time>2022-02-19T12:17:32Z</time>
      </trkpt>
      <trkpt lat="45.05449" lon="2.48512">
        <ele>846.2</ele>
        <time>2022-02-19T12:17:38Z</time>
      </trkpt>
      <trkpt lat="45.05453" lon="2.48509">
        <ele>846.8</ele>
        <time>2022-02-19T12:17:43Z</time>
      </trkpt>
      <trkpt lat="45.05455" lon="2.48504">
        <ele>847.2</ele>
        <time>2022-02-19T12:17:46Z</time>
      </trkpt>
      <trkpt lat="45.05457" lon="2.48502">
        <ele>847.6</ele>
        <time>2022-02-19T12:17:49Z</time>
      </trkpt>
      <trkpt lat="45.05458" lon="2.48501">
        <ele>848</ele>
        <time>2022-02-19T12:17:51Z</time>
      </trkpt>
      <trkpt lat="45.0546" lon="2.48499">
        <ele>848.4</ele>
        <time>2022-02-19T12:17:54Z</time>
      </trkpt>
      <trkpt lat="45.0546" lon="2.48499">
        <ele>848.4</ele>
        <time>2022-02-19T12:17:55Z</time>
      </trkpt>
      <trkpt lat="45.0546" lon="2.48498">
        <ele>848.6</ele>
        <time>2022-02-19T12:17:56Z</time>
      </trkpt>
      <trkpt lat="45.05462" lon="2.48499">
        <ele>849.6</ele>
        <time>2022-02-19T12:18:05Z</time>
      </trkpt>
      <trkpt lat="45.05464" lon="2.48501">
        <ele>850</ele>
        <time>2022-02-19T12:18:07Z</time>
      </trkpt>
      <trkpt lat="45.05466" lon="2.48506">
        <ele>850.8</ele>
        <time>2022-02-19T12:18:11Z</time>
      </trkpt>
      <trkpt lat="45.05467" lon="2.4851">
        <ele>851.4</ele>
        <time>2022-02-19T12:18:14Z</time>
      </trkpt>
      <trkpt lat="45.05469" lon="2.48514">
        <ele>851.8</ele>
        <time>2022-02-19T12:18:17Z</time>
      </trkpt>
      <trkpt lat="45.05469" lon="2.48516">
        <ele>853</ele>
        <time>2022-02-19T12:18:20Z</time>
      </trkpt>
      <trkpt lat="45.05469" lon="2.48517">
        <ele>853.4</ele>
        <time>2022-02-19T12:18:22Z</time>
      </trkpt>
      <trkpt lat="45.05469" lon="2.48524">
        <ele>854.4</ele>
        <time>2022-02-19T12:18:30Z</time>
      </trkpt>
      <trkpt lat="45.05468" lon="2.48525">
        <ele>855.8</ele>
        <time>2022-02-19T12:18:36Z</time>
      </trkpt>
      <trkpt lat="45.05467" lon="2.48527">
        <ele>856.4</ele>
        <time>2022-02-19T12:18:39Z</time>
      </trkpt>
      <trkpt lat="45.05466" lon="2.48528">
        <ele>857</ele>
        <time>2022-02-19T12:18:41Z</time>
      </trkpt>
      <trkpt lat="45.05465" lon="2.48527">
        <ele>858</ele>
        <time>2022-02-19T12:18:51Z</time>
      </trkpt>
      <trkpt lat="45.05466" lon="2.48527">
        <ele>858</ele>
        <time>2022-02-19T12:18:52Z</time>
      </trkpt>
      <trkpt lat="45.05466" lon="2.48528">
        <ele>859.2</ele>
        <time>2022-02-19T12:19:00Z</time>
      </trkpt>
      <trkpt lat="45.05465" lon="2.48527">
        <ele>860</ele>
        <time>2022-02-19T12:19:05Z</time>
      </trkpt>
      <trkpt lat="45.05464" lon="2.48527">
        <ele>860.2</ele>
        <time>2022-02-19T12:19:09Z</time>
      </trkpt>
      <trkpt lat="45.05465" lon="2.48531">
        <ele>861</ele>
        <time>2022-02-19T12:19:15Z</time>
      </trkpt>
      <trkpt lat="45.05465" lon="2.48532">
        <ele>861.2</ele>
        <time>2022-02-19T12:19:17Z</time>
      </trkpt>
      <trkpt lat="45.05461" lon="2.48535">
        <ele>862.4</ele>
        <time>2022-02-19T12:19:23Z</time>
      </trkpt>
      <trkpt lat="45.05456" lon="2.48535">
        <ele>862.4</ele>
        <time>2022-02-19T12:19:25Z</time>
      </trkpt>
      <trkpt lat="45.05454" lon="2.48534">
        <ele>862.6</ele>
        <time>2022-02-19T12:19:27Z</time>
      </trkpt>
      <trkpt lat="45.05454" lon="2.48534">
        <ele>862.6</ele>
        <time>2022-02-19T12:19:28Z</time>
      </trkpt>
      <trkpt lat="45.0545" lon="2.48533">
        <ele>863.6</ele>
        <time>2022-02-19T12:19:32Z</time>
      </trkpt>
      <trkpt lat="45.0545" lon="2.48533">
        <ele>863.6</ele>
        <time>2022-02-19T12:19:33Z</time>
      </trkpt>
      <trkpt lat="45.05448" lon="2.48533">
        <ele>864</ele>
        <time>2022-02-19T12:19:35Z</time>
      </trkpt>
      <trkpt lat="45.05446" lon="2.48533">
        <ele>864.4</ele>
        <time>2022-02-19T12:19:41Z</time>
      </trkpt>
      <trkpt lat="45.05445" lon="2.48534">
        <ele>864.8</ele>
        <time>2022-02-19T12:19:47Z</time>
      </trkpt>
      <trkpt lat="45.05445" lon="2.48534">
        <ele>864.8</ele>
        <time>2022-02-19T12:19:51Z</time>
      </trkpt>
      <trkpt lat="45.05446" lon="2.48534">
        <ele>864.4</ele>
        <time>2022-02-19T12:20:07Z</time>
      </trkpt>
      <trkpt lat="45.05446" lon="2.48534">
        <ele>864.6</ele>
        <time>2022-02-19T12:20:23Z</time>
      </trkpt>
      <trkpt lat="45.05446" lon="2.48532">
        <ele>864.2</ele>
        <time>2022-02-19T12:20:39Z</time>
      </trkpt>
      <trkpt lat="45.05446" lon="2.48532">
        <ele>863.8</ele>
        <time>2022-02-19T12:20:46Z</time>
      </trkpt>
      <trkpt lat="45.05447" lon="2.48532">
        <ele>864</ele>
        <time>2022-02-19T12:20:51Z</time>
      </trkpt>
      <trkpt lat="45.05447" lon="2.48532">
        <ele>865.2</ele>
        <time>2022-02-19T12:20:57Z</time>
      </trkpt>
      <trkpt lat="45.05447" lon="2.48532">
        <ele>865.2</ele>
        <time>2022-02-19T12:21:04Z</time>
      </trkpt>
      <trkpt lat="45.05447" lon="2.48533">
        <ele>865.2</ele>
        <time>2022-02-19T12:21:20Z</time>
      </trkpt>
      <trkpt lat="45.05448" lon="2.48532">
        <ele>865.2</ele>
        <time>2022-02-19T12:21:35Z</time>
      </trkpt>
      <trkpt lat="45.05448" lon="2.48532">
        <ele>865.2</ele>
        <time>2022-02-19T12:21:45Z</time>
      </trkpt>
      <trkpt lat="45.05448" lon="2.48532">
        <ele>865.2</ele>
        <time>2022-02-19T12:22:01Z</time>
      </trkpt>
      <trkpt lat="45.05448" lon="2.48533">
        <ele>865.2</ele>
        <time>2022-02-19T12:22:13Z</time>
      </trkpt>
      <trkpt lat="45.05448" lon="2.48533">
        <ele>865.2</ele>
        <time>2022-02-19T12:22:30Z</time>
      </trkpt>
      <trkpt lat="45.05449" lon="2.48532">
        <ele>865.2</ele>
        <time>2022-02-19T12:22:45Z</time>
      </trkpt>
      <trkpt lat="45.0545" lon="2.48531">
        <ele>865.2</ele>
        <time>2022-02-19T12:23:00Z</time>
      </trkpt>
      <trkpt lat="45.05448" lon="2.48531">
        <ele>865.2</ele>
        <time>2022-02-19T12:23:16Z</time>
      </trkpt>
      <trkpt lat="45.05449" lon="2.4853">
        <ele>865.2</ele>
        <time>2022-02-19T12:23:27Z</time>
      </trkpt>
      <trkpt lat="45.05449" lon="2.4853">
        <ele>865.2</ele>
        <time>2022-02-19T12:23:42Z</time>
      </trkpt>
      <trkpt lat="45.05448" lon="2.48531">
        <ele>865.2</ele>
        <time>2022-02-19T12:23:53Z</time>
      </trkpt>
      <trkpt lat="45.0545" lon="2.48532">
        <ele>865.2</ele>
        <time>2022-02-19T12:24:09Z</time>
      </trkpt>
      <trkpt lat="45.0545" lon="2.48532">
        <ele>865.2</ele>
        <time>2022-02-19T12:24:11Z</time>
      </trkpt>
      <trkpt lat="45.05455" lon="2.48535">
        <ele>865.2</ele>
        <time>2022-02-19T12:24:22Z</time>
      </trkpt>
      <trkpt lat="45.05458" lon="2.48528">
        <ele>865.2</ele>
        <time>2022-02-19T12:24:35Z</time>
      </trkpt>
      <trkpt lat="45.05461" lon="2.48527">
        <ele>865.2</ele>
        <time>2022-02-19T12:24:51Z</time>
      </trkpt>
      <trkpt lat="45.05461" lon="2.48522">
        <ele>856</ele>
        <time>2022-02-19T12:25:01Z</time>
      </trkpt>
      <trkpt lat="45.05461" lon="2.4852">
        <ele>856</ele>
        <time>2022-02-19T12:25:04Z</time>
      </trkpt>
      <trkpt lat="45.05458" lon="2.48514">
        <ele>854.8</ele>
        <time>2022-02-19T12:25:11Z</time>
      </trkpt>
      <trkpt lat="45.05456" lon="2.48509">
        <ele>853.8</ele>
        <time>2022-02-19T12:25:18Z</time>
      </trkpt>
      <trkpt lat="45.05455" lon="2.48507">
        <ele>853.8</ele>
        <time>2022-02-19T12:25:25Z</time>
      </trkpt>
      <trkpt lat="45.05455" lon="2.48506">
        <ele>853.6</ele>
        <time>2022-02-19T12:25:32Z</time>
      </trkpt>
      <trkpt lat="45.05456" lon="2.48504">
        <ele>853.6</ele>
        <time>2022-02-19T12:25:51Z</time>
      </trkpt>
      <trkpt lat="45.05458" lon="2.48499">
        <ele>852.6</ele>
        <time>2022-02-19T12:26:03Z</time>
      </trkpt>
      <trkpt lat="45.05458" lon="2.48498">
        <ele>852.6</ele>
        <time>2022-02-19T12:26:05Z</time>
      </trkpt>
      <trkpt lat="45.05457" lon="2.48494">
        <ele>851.4</ele>
        <time>2022-02-19T12:26:18Z</time>
      </trkpt>
      <trkpt lat="45.05457" lon="2.48493">
        <ele>851</ele>
        <time>2022-02-19T12:26:19Z</time>
      </trkpt>
      <trkpt lat="45.05455" lon="2.48491">
        <ele>850.4</ele>
        <time>2022-02-19T12:26:23Z</time>
      </trkpt>
      <trkpt lat="45.05452" lon="2.48494">
        <ele>849.6</ele>
        <time>2022-02-19T12:26:31Z</time>
      </trkpt>
      <trkpt lat="45.05452" lon="2.48495">
        <ele>849.2</ele>
        <time>2022-02-19T12:26:32Z</time>
      </trkpt>
      <trkpt lat="45.05453" lon="2.48502">
        <ele>848.2</ele>
        <time>2022-02-19T12:26:42Z</time>
      </trkpt>
      <trkpt lat="45.05453" lon="2.48506">
        <ele>847</ele>
        <time>2022-02-19T12:26:48Z</time>
      </trkpt>
      <trkpt lat="45.05453" lon="2.48502">
        <ele>846</ele>
        <time>2022-02-19T12:26:54Z</time>
      </trkpt>
      <trkpt lat="45.05449" lon="2.48499">
        <ele>844.8</ele>
        <time>2022-02-19T12:27:00Z</time>
      </trkpt>
      <trkpt lat="45.05448" lon="2.48503">
        <ele>843.8</ele>
        <time>2022-02-19T12:27:07Z</time>
      </trkpt>
      <trkpt lat="45.05447" lon="2.48508">
        <ele>842.8</ele>
        <time>2022-02-19T12:27:11Z</time>
      </trkpt>
      <trkpt lat="45.05448" lon="2.48509">
        <ele>842.4</ele>
        <time>2022-02-19T12:27:12Z</time>
      </trkpt>
      <trkpt lat="45.05447" lon="2.48518">
        <ele>841.6</ele>
        <time>2022-02-19T12:27:20Z</time>
      </trkpt>
      <trkpt lat="45.05446" lon="2.48525">
        <ele>840.8</ele>
        <time>2022-02-19T12:27:24Z</time>
      </trkpt>
      <trkpt lat="45.05446" lon="2.48529">
        <ele>840.6</ele>
        <time>2022-02-19T12:27:26Z</time>
      </trkpt>
      <trkpt lat="45.05445" lon="2.48534">
        <ele>840.4</ele>
        <time>2022-02-19T12:27:29Z</time>
      </trkpt>
      <trkpt lat="45.05444" lon="2.48537">
        <ele>840.2</ele>
        <time>2022-02-19T12:27:33Z</time>
      </trkpt>
      <trkpt lat="45.05442" lon="2.48543">
        <ele>839.6</ele>
        <time>2022-02-19T12:27:39Z</time>
      </trkpt>
      <trkpt lat="45.05441" lon="2.48547">
        <ele>839.6</ele>
        <time>2022-02-19T12:27:42Z</time>
      </trkpt>
      <trkpt lat="45.0544" lon="2.4855">
        <ele>839.4</ele>
        <time>2022-02-19T12:27:44Z</time>
      </trkpt>
      <trkpt lat="45.0544" lon="2.48554">
        <ele>839</ele>
        <time>2022-02-19T12:27:48Z</time>
      </trkpt>
      <trkpt lat="45.05437" lon="2.48555">
        <ele>838.4</ele>
        <time>2022-02-19T12:27:51Z</time>
      </trkpt>
      <trkpt lat="45.05435" lon="2.48556">
        <ele>838</ele>
        <time>2022-02-19T12:27:53Z</time>
      </trkpt>
      <trkpt lat="45.05432" lon="2.48556">
        <ele>837.6</ele>
        <time>2022-02-19T12:27:56Z</time>
      </trkpt>
      <trkpt lat="45.05431" lon="2.48554">
        <ele>837</ele>
        <time>2022-02-19T12:27:58Z</time>
      </trkpt>
      <trkpt lat="45.05426" lon="2.48548">
        <ele>836</ele>
        <time>2022-02-19T12:28:03Z</time>
      </trkpt>
      <trkpt lat="45.05426" lon="2.48545">
        <ele>836</ele>
        <time>2022-02-19T12:28:04Z</time>
      </trkpt>
      <trkpt lat="45.05425" lon="2.48537">
        <ele>834.8</ele>
        <time>2022-02-19T12:28:10Z</time>
      </trkpt>
      <trkpt lat="45.05424" lon="2.48531">
        <ele>834.2</ele>
        <time>2022-02-19T12:28:15Z</time>
      </trkpt>
      <trkpt lat="45.05424" lon="2.48528">
        <ele>833.6</ele>
        <time>2022-02-19T12:28:17Z</time>
      </trkpt>
      <trkpt lat="45.05423" lon="2.48519">
        <ele>832.6</ele>
        <time>2022-02-19T12:28:24Z</time>
      </trkpt>
      <trkpt lat="45.05423" lon="2.48519">
        <ele>832.2</ele>
        <time>2022-02-19T12:28:27Z</time>
      </trkpt>
      <trkpt lat="45.05423" lon="2.4852">
        <ele>832</ele>
        <time>2022-02-19T12:28:29Z</time>
      </trkpt>
      <trkpt lat="45.05422" lon="2.48525">
        <ele>831.4</ele>
        <time>2022-02-19T12:28:33Z</time>
      </trkpt>
      <trkpt lat="45.05422" lon="2.48527">
        <ele>831</ele>
        <time>2022-02-19T12:28:35Z</time>
      </trkpt>
      <trkpt lat="45.05421" lon="2.4853">
        <ele>830.4</ele>
        <time>2022-02-19T12:28:38Z</time>
      </trkpt>
      <trkpt lat="45.0542" lon="2.48531">
        <ele>830.4</ele>
        <time>2022-02-19T12:28:39Z</time>
      </trkpt>
      <trkpt lat="45.0542" lon="2.48533">
        <ele>830</ele>
        <time>2022-02-19T12:28:41Z</time>
      </trkpt>
      <trkpt lat="45.05421" lon="2.48537">
        <ele>829.6</ele>
        <time>2022-02-19T12:28:44Z</time>
      </trkpt>
      <trkpt lat="45.05421" lon="2.4854">
        <ele>829.2</ele>
        <time>2022-02-19T12:28:47Z</time>
      </trkpt>
      <trkpt lat="45.0542" lon="2.48542">
        <ele>828.6</ele>
        <time>2022-02-19T12:28:49Z</time>
      </trkpt>
      <trkpt lat="45.0542" lon="2.48544">
        <ele>828.4</ele>
        <time>2022-02-19T12:28:51Z</time>
      </trkpt>
      <trkpt lat="45.0542" lon="2.48547">
        <ele>828</ele>
        <time>2022-02-19T12:28:53Z</time>
      </trkpt>
      <trkpt lat="45.0542" lon="2.48549">
        <ele>827.8</ele>
        <time>2022-02-19T12:28:55Z</time>
      </trkpt>
      <trkpt lat="45.0542" lon="2.4855">
        <ele>827.8</ele>
        <time>2022-02-19T12:28:56Z</time>
      </trkpt>
      <trkpt lat="45.05419" lon="2.48552">
        <ele>827.6</ele>
        <time>2022-02-19T12:28:57Z</time>
      </trkpt>
      <trkpt lat="45.05418" lon="2.48556">
        <ele>827.4</ele>
        <time>2022-02-19T12:29:00Z</time>
      </trkpt>
      <trkpt lat="45.05417" lon="2.48561">
        <ele>826.6</ele>
        <time>2022-02-19T12:29:03Z</time>
      </trkpt>
      <trkpt lat="45.05415" lon="2.48567">
        <ele>825.8</ele>
        <time>2022-02-19T12:29:07Z</time>
      </trkpt>
      <trkpt lat="45.05414" lon="2.4857">
        <ele>825.6</ele>
        <time>2022-02-19T12:29:09Z</time>
      </trkpt>
      <trkpt lat="45.05414" lon="2.48572">
        <ele>825.2</ele>
        <time>2022-02-19T12:29:10Z</time>
      </trkpt>
      <trkpt lat="45.05412" lon="2.48574">
        <ele>824.8</ele>
        <time>2022-02-19T12:29:12Z</time>
      </trkpt>
      <trkpt lat="45.05408" lon="2.48575">
        <ele>824.2</ele>
        <time>2022-02-19T12:29:16Z</time>
      </trkpt>
      <trkpt lat="45.05402" lon="2.48577">
        <ele>823.6</ele>
        <time>2022-02-19T12:29:24Z</time>
      </trkpt>
      <trkpt lat="45.05401" lon="2.48578">
        <ele>823.2</ele>
        <time>2022-02-19T12:29:26Z</time>
      </trkpt>
      <trkpt lat="45.05397" lon="2.48583">
        <ele>822.2</ele>
        <time>2022-02-19T12:29:32Z</time>
      </trkpt>
      <trkpt lat="45.05394" lon="2.48582">
        <ele>821</ele>
        <time>2022-02-19T12:29:36Z</time>
      </trkpt>
      <trkpt lat="45.05393" lon="2.48582">
        <ele>820.8</ele>
        <time>2022-02-19T12:29:37Z</time>
      </trkpt>
      <trkpt lat="45.05393" lon="2.48582">
        <ele>820.8</ele>
        <time>2022-02-19T12:29:38Z</time>
      </trkpt>
      <trkpt lat="45.05393" lon="2.48581">
        <ele>820.4</ele>
        <time>2022-02-19T12:29:40Z</time>
      </trkpt>
      <trkpt lat="45.05392" lon="2.4858">
        <ele>820</ele>
        <time>2022-02-19T12:29:43Z</time>
      </trkpt>
      <trkpt lat="45.05391" lon="2.48578">
        <ele>818.8</ele>
        <time>2022-02-19T12:29:47Z</time>
      </trkpt>
      <trkpt lat="45.05391" lon="2.48578">
        <ele>818.6</ele>
        <time>2022-02-19T12:29:48Z</time>
      </trkpt>
      <trkpt lat="45.0539" lon="2.48575">
        <ele>817.6</ele>
        <time>2022-02-19T12:29:51Z</time>
      </trkpt>
      <trkpt lat="45.05389" lon="2.4857">
        <ele>817.2</ele>
        <time>2022-02-19T12:29:56Z</time>
      </trkpt>
      <trkpt lat="45.05388" lon="2.48567">
        <ele>816.8</ele>
        <time>2022-02-19T12:29:59Z</time>
      </trkpt>
      <trkpt lat="45.05387" lon="2.48566">
        <ele>816.6</ele>
        <time>2022-02-19T12:30:00Z</time>
      </trkpt>
      <trkpt lat="45.05388" lon="2.48566">
        <ele>816.4</ele>
        <time>2022-02-19T12:30:01Z</time>
      </trkpt>
      <trkpt lat="45.05383" lon="2.48559">
        <ele>815.8</ele>
        <time>2022-02-19T12:30:11Z</time>
      </trkpt>
      <trkpt lat="45.05381" lon="2.48558">
        <ele>815.4</ele>
        <time>2022-02-19T12:30:14Z</time>
      </trkpt>
      <trkpt lat="45.05378" lon="2.48554">
        <ele>814.2</ele>
        <time>2022-02-19T12:30:18Z</time>
      </trkpt>
      <trkpt lat="45.05375" lon="2.48552">
        <ele>813</ele>
        <time>2022-02-19T12:30:21Z</time>
      </trkpt>
      <trkpt lat="45.05371" lon="2.48549">
        <ele>811.8</ele>
        <time>2022-02-19T12:30:25Z</time>
      </trkpt>
      <trkpt lat="45.0537" lon="2.48548">
        <ele>811.2</ele>
        <time>2022-02-19T12:30:27Z</time>
      </trkpt>
      <trkpt lat="45.05369" lon="2.48548">
        <ele>811</ele>
        <time>2022-02-19T12:30:28Z</time>
      </trkpt>
      <trkpt lat="45.05368" lon="2.48547">
        <ele>810.6</ele>
        <time>2022-02-19T12:30:29Z</time>
      </trkpt>
      <trkpt lat="45.05365" lon="2.48546">
        <ele>809.4</ele>
        <time>2022-02-19T12:30:33Z</time>
      </trkpt>
      <trkpt lat="45.05362" lon="2.48543">
        <ele>808.2</ele>
        <time>2022-02-19T12:30:37Z</time>
      </trkpt>
      <trkpt lat="45.0536" lon="2.48541">
        <ele>807.8</ele>
        <time>2022-02-19T12:30:40Z</time>
      </trkpt>
      <trkpt lat="45.05358" lon="2.48539">
        <ele>807.4</ele>
        <time>2022-02-19T12:30:42Z</time>
      </trkpt>
      <trkpt lat="45.05358" lon="2.48538">
        <ele>807.2</ele>
        <time>2022-02-19T12:30:43Z</time>
      </trkpt>
      <trkpt lat="45.05349" lon="2.48526">
        <ele>806.4</ele>
        <time>2022-02-19T12:30:54Z</time>
      </trkpt>
      <trkpt lat="45.05348" lon="2.48524">
        <ele>806.2</ele>
        <time>2022-02-19T12:30:56Z</time>
      </trkpt>
      <trkpt lat="45.05341" lon="2.48524">
        <ele>805.4</ele>
        <time>2022-02-19T12:31:06Z</time>
      </trkpt>
      <trkpt lat="45.05339" lon="2.48527">
        <ele>805.2</ele>
        <time>2022-02-19T12:31:08Z</time>
      </trkpt>
      <trkpt lat="45.05338" lon="2.48529">
        <ele>805</ele>
        <time>2022-02-19T12:31:09Z</time>
      </trkpt>
      <trkpt lat="45.05337" lon="2.48542">
        <ele>804</ele>
        <time>2022-02-19T12:31:18Z</time>
      </trkpt>
      <trkpt lat="45.05336" lon="2.48543">
        <ele>803.8</ele>
        <time>2022-02-19T12:31:19Z</time>
      </trkpt>
      <trkpt lat="45.05336" lon="2.48551">
        <ele>803.4</ele>
        <time>2022-02-19T12:31:23Z</time>
      </trkpt>
    </trkseg>
  </trk>
</gpx>